Latest Weather Observations for Swanbourne

IDW60801

Issued at 9:32 pm WST Sunday 30 August 2015 (issued every 30 minutes, with the page automatically refreshed every 10 minutes)

About weather observations | Map of weather stations | Latest weather observations for WA | Other Formats
Station Details ID: 009215 Name: SWANBOURNE Lat: -31.96 Lon: 115.76 Height: 40.96 m
Data from the previous 72 hours. | See also: Recent months at Swanbourne
Date/Time
WST
Temp
°C
App
Temp
°C
Dew
Point
Rel
Hum
%
Delta-T
°C
Wind Press
QNH
hPa
Press
MSL
hPa
Rain
since 9 am
mm
Dir
 
Spd
km/h
Gust
km/h
Spd
kts
Gust
kts
30/09:30pm 12.5 10.7 7.0 69 2.7 ESE 6 6 3 3 - - 0.0
30/09:00pm 12.1 10.0 5.9 66 2.9 ESE 6 6 3 3 - - 0.0
30/08:30pm 12.2 11.2 5.8 65 3.0 CALM 0 6 0 3 - - 0.0
30/08:00pm 13.3 11.6 5.9 61 3.5 SW 4 6 2 3 - - 0.0
30/07:30pm 13.8 10.8 6.2 60 3.6 SW 11 19 6 10 - - 0.0
30/07:00pm 13.7 11.7 6.1 60 3.6 SSW 6 9 3 5 - - 0.0
30/06:30pm 13.5 11.5 6.1 61 3.5 SSW 6 9 3 5 - - 0.0
30/06:00pm 13.8 11.8 6.2 60 3.6 SW 6 13 3 7 - - 0.0
30/05:30pm 14.8 12.3 6.4 57 4.1 SSW 9 13 5 7 - - 0.0
30/05:00pm 16.2 13.3 6.3 52 4.8 SSW 11 15 6 8 - - 0.0
30/04:30pm 16.6 13.2 6.1 50 5.1 SSW 13 20 7 11 - - 0.0
30/04:00pm 17.6 14.4 6.8 49 5.4 SW 13 19 7 10 - - 0.0
30/03:30pm 17.0 13.8 6.8 51 5.1 SW 13 19 7 10 - - 0.0
30/03:00pm 16.8 13.6 6.9 52 4.9 SSW 13 20 7 11 - - 0.0
30/02:30pm 17.4 14.0 7.5 52 5.0 SSW 15 22 8 12 - - 0.0
30/02:00pm 17.9 14.4 7.3 50 5.3 SW 15 22 8 12 - - 0.0
30/01:30pm 17.6 13.8 7.4 51 5.1 SW 17 24 9 13 - - 0.0
30/01:00pm 17.6 14.1 7.4 51 5.1 SW 15 22 8 12 - - 0.0
30/12:30pm 18.2 14.3 8.7 54 4.9 SSW 19 28 10 15 - - 0.0
30/12:00pm 18.1 14.4 7.8 51 5.2 SSW 17 28 9 15 - - 0.0
30/11:30am 17.6 13.4 7.4 51 5.1 SSW 19 28 10 15 - - 0.0
30/11:00am 17.6 13.1 8.7 56 4.6 SSW 22 32 12 17 - - 0.0
30/10:30am 17.6 14.0 10.5 63 3.8 SSW 20 33 11 18 - - 0.0
30/10:00am 16.9 12.3 6.4 50 5.2 SW 20 30 11 16 - - 0.0
30/09:30am 16.6 12.0 6.7 52 4.9 SW 20 30 11 16 - - 0.0
30/09:00am 16.0 11.1 6.7 54 4.6 SW 22 33 12 18 - - 15.0
30/08:30am 15.8 10.7 7.8 59 4.0 SSW 24 33 13 18 - - 15.0
30/08:00am 15.6 10.8 7.4 58 4.1 SW 22 35 12 19 - - 15.0
30/07:30am 15.2 10.1 9.1 67 3.1 SW 26 41 14 22 - - 15.0
30/07:00am 14.5 11.7 9.9 74 2.4 SSW 15 26 8 14 - - 15.0
30/06:30am 15.2 10.4 8.9 66 3.2 SW 24 33 13 18 - - 15.0
30/06:00am 14.8 10.2 9.6 71 2.7 SW 24 37 13 20 - - 15.0
30/05:30am 15.3 11.0 10.7 74 2.4 SW 24 35 13 19 - - 15.0
30/05:00am 15.2 11.1 10.2 72 2.6 SW 22 35 12 19 - - 15.0
30/04:30am 15.2 10.4 10.2 72 2.6 SW 26 43 14 23 - - 15.0
30/04:00am 15.8 11.0 11.6 76 2.3 SW 28 39 15 21 - - 15.0
30/03:30am 15.9 10.7 10.4 70 2.9 WSW 28 39 15 21 - - 15.0
30/03:00am 15.5 11.2 12.1 80 1.9 SW 26 39 14 21 - - 15.0
30/02:30am 15.7 13.0 13.4 86 1.3 WSW 20 32 11 17 - - 15.0
30/02:00am 14.6 11.9 13.5 93 0.6 WSW 20 32 11 17 - - 15.0
30/01:30am 15.4 13.9 14.1 92 0.7 W 15 22 8 12 - - 15.0
30/01:00am 15.4 13.5 13.1 86 1.3 W 15 19 8 10 - - 14.8
30/12:30am 15.3 13.1 13.2 87 1.2 W 17 22 9 12 - - 14.8
30/12:00am 15.0 13.6 13.5 91 0.8 W 13 20 7 11 - - 14.8
 
Date/Time
WST
Temp
°C
App
Temp
°C
Dew
Point
Rel
Hum
%
Delta-T
°C
Wind Press
QNH
hPa
Press
MSL
hPa
Rain
since 9 am
mm
Dir
 
Spd
km/h
Gust
km/h
Spd
kts
Gust
kts
29/11:30pm 14.5 13.3 13.9 96 0.3 W 13 19 7 10 - - 14.8
29/11:00pm 14.7 12.9 14.4 98 0.2 WSW 17 28 9 15 - - 14.8
29/10:30pm 15.4 14.2 15.1 98 0.2 W 15 26 8 14 - - 14.6
29/10:00pm 15.4 14.2 15.1 98 0.2 W 15 22 8 12 - - 14.4
29/09:30pm 16.0 13.7 15.7 98 0.2 WSW 22 35 12 19 - - 12.4
29/09:00pm 16.1 14.2 15.8 98 0.2 NW 20 28 11 15 - - 12.0
29/08:30pm 17.6 14.9 14.7 83 1.7 NW 22 37 12 20 - - 7.4
29/08:00pm 17.9 16.0 14.2 79 2.1 NNW 17 24 9 13 - - 7.4
29/07:30pm 17.5 15.1 13.8 79 2.1 NW 19 26 10 14 - - 7.4
29/07:00pm 17.4 16.0 14.5 83 1.7 NW 15 20 8 11 - - 7.4
29/06:30pm 17.4 15.8 13.9 80 2.0 NW 15 20 8 11 - - 7.4
29/06:00pm 17.5 15.0 13.4 77 2.3 NW 19 24 10 13 - - 7.4
29/05:30pm 18.3 16.8 14.2 77 2.4 WNW 15 20 8 11 - - 7.4
29/05:00pm 19.1 16.8 14.1 73 2.9 WNW 19 26 10 14 - - 7.4
29/04:30pm 18.8 16.9 14.3 75 2.6 WNW 17 22 9 12 - - 7.4
29/04:00pm 20.0 17.8 14.4 70 3.3 WNW 19 24 10 13 - - 7.4
29/03:30pm 20.3 18.4 15.1 72 3.1 WNW 19 30 10 16 - - 7.4
29/03:00pm 20.1 18.0 16.1 78 2.4 WNW 22 28 12 15 - - 7.4
29/02:30pm 18.8 17.2 16.4 86 1.4 WNW 20 28 11 15 - - 7.4
29/02:00pm 18.8 16.8 17.3 91 0.9 NW 24 32 13 17 - - 7.2
29/01:30pm 17.3 14.8 17.0 98 0.2 NNW 26 37 14 20 - - 7.2
29/01:00pm 17.5 14.9 16.0 91 0.9 NW 24 35 13 19 - - 3.8
29/12:30pm 19.5 15.8 16.0 80 2.1 NNW 30 43 16 23 - - 0.8
29/12:02pm 19.1 16.5 17.8 92 0.8 NNW 28 46 15 25 - - 0.8
29/12:00pm 18.6 15.8 17.3 92 0.8 NNW 28 44 15 24 - - 0.8
29/11:30am 17.6 14.8 16.3 92 0.8 NNW 26 35 14 19 - - 0.8
29/11:00am 19.6 17.0 15.0 75 2.7 NNW 22 33 12 18 - - 0.0
29/10:30am 20.1 17.4 14.5 70 3.3 N 22 33 12 18 - - 0.0
29/10:00am 18.3 16.1 14.4 78 2.3 N 19 30 10 16 - - 0.0
29/09:30am 17.3 16.0 15.8 91 0.9 NNE 17 28 9 15 - - 0.0
29/09:00am 15.8 15.1 15.5 98 0.2 NNE 13 19 7 10 - - 2.0
29/08:30am 14.9 13.9 14.6 98 0.2 NE 13 26 7 14 - - 2.0
29/08:00am 14.2 12.6 13.9 98 0.2 NE 15 24 8 13 - - 2.0
29/07:30am 14.0 12.7 13.7 98 0.2 NNE 13 22 7 12 - - 2.0
29/07:00am 14.0 13.1 13.7 98 0.2 NNE 11 20 6 11 - - 2.0
29/06:30am 13.8 12.8 13.5 98 0.2 NNE 11 17 6 9 - - 2.0
29/06:00am 13.7 13.1 13.4 98 0.2 NE 9 15 5 8 - - 2.0
29/05:30am 13.9 13.3 13.6 98 0.2 NE 9 15 5 8 - - 2.0
29/05:00am 13.8 13.2 13.5 98 0.2 NE 9 15 5 8 - - 2.0
29/04:30am 13.9 13.3 13.6 98 0.2 NE 9 15 5 8 - - 2.0
29/04:00am 14.1 13.6 13.8 98 0.2 NE 9 17 5 9 - - 2.0
29/03:30am 14.2 13.7 13.9 98 0.2 NE 9 13 5 7 - - 2.0
29/03:00am 14.5 14.1 14.2 98 0.2 NNE 9 13 5 7 - - 2.0
29/02:30am 14.3 13.9 14.0 98 0.2 NE 9 11 5 6 - - 1.8
29/02:00am 15.0 15.2 14.7 98 0.2 NNE 7 13 4 7 - - 1.8
29/01:30am 15.6 15.6 15.3 98 0.2 NNE 9 13 5 7 - - 1.8
29/01:00am 15.4 15.7 15.1 98 0.2 NNE 7 13 4 7 - - 1.8
29/12:30am 15.8 16.3 15.5 98 0.2 NE 7 13 4 7 - - 1.8
29/12:00am 16.1 15.9 15.8 98 0.2 N 11 15 6 8 - - 1.8
 
Date/Time
WST
Temp
°C
App
Temp
°C
Dew
Point
Rel
Hum
%
Delta-T
°C
Wind Press
QNH
hPa
Press
MSL
hPa
Rain
since 9 am
mm
Dir
 
Spd
km/h
Gust
km/h
Spd
kts
Gust
kts
28/11:30pm 16.0 16.5 15.5 97 0.3 NNE 7 13 4 7 - - 1.8
28/11:00pm 16.2 16.3 15.4 95 0.5 NNE 9 13 5 7 - - 1.8
28/10:30pm 16.2 16.5 15.1 93 0.6 N 7 9 4 5 - - 1.8
28/10:00pm 16.5 16.9 15.4 93 0.6 NNE 7 13 4 7 - - 1.8
28/09:30pm 16.5 16.6 15.5 94 0.6 NNE 9 15 5 8 - - 1.8
28/09:00pm 16.4 16.7 16.1 98 0.2 NNE 9 11 5 6 - - 1.8
28/08:30pm 16.4 17.0 15.9 97 0.3 N 7 9 4 5 - - 1.8
28/08:00pm 16.5 17.0 15.5 94 0.6 NNE 7 9 4 5 - - 1.8
28/07:30pm 16.5 16.9 15.4 93 0.6 NNE 7 9 4 5 - - 1.8
28/07:00pm 16.5 16.9 14.7 89 1.0 NE 6 7 3 4 - - 1.8
28/06:30pm 16.7 17.8 14.5 87 1.3 NNE 2 6 1 3 - - 1.8
28/06:00pm 17.4 18.8 14.5 83 1.7 CALM 0 0 0 0 - - 1.8
28/05:30pm 18.1 18.9 14.8 81 1.9 W 4 6 2 3 - - 1.8
28/05:00pm 18.5 19.2 14.6 78 2.3 WNW 4 6 2 3 - - 1.8
28/04:30pm 19.7 20.6 15.1 75 2.7 WNW 4 7 2 4 - - 1.8
28/04:00pm 20.4 21.3 15.2 72 3.1 W 4 7 2 4 - - 1.8
28/03:30pm 20.4 21.0 15.2 72 3.1 W 6 9 3 5 - - 1.8
28/03:00pm 20.6 21.3 16.2 76 2.6 WNW 7 11 4 6 - - 1.8
28/02:30pm 19.5 20.0 17.5 88 1.2 NW 11 17 6 9 - - 1.8
28/02:00pm 18.9 18.3 16.7 87 1.3 NW 15 20 8 11 - - 1.8
28/01:30pm 17.8 15.9 16.7 93 0.7 NW 22 37 12 20 - - 1.8
28/01:00pm 18.5 16.8 16.3 87 1.3 NNW 20 26 11 14 - - 1.6
28/12:30pm 18.1 16.6 16.3 89 1.1 NW 19 28 10 15 - - 1.6
28/12:00pm 19.5 18.6 17.8 90 1.0 NNW 19 26 10 14 - - 1.6
28/11:30am 18.3 18.6 18.0 98 0.2 NNW 13 20 7 11 - - 1.6
28/11:00am 17.2 16.1 16.4 95 0.5 N 17 28 9 15 - - 1.2
28/10:30am 17.9 16.7 16.2 90 1.0 NNW 17 32 9 17 - - 1.2
28/10:00am 17.1 17.2 15.6 91 0.9 N 9 20 5 11 - - 1.0
28/09:30am 18.3 16.7 14.0 76 2.5 N 15 28 8 15 - - 0.0
28/09:00am 17.8 16.2 13.9 78 2.2 N 15 24 8 13 - - 0.0
28/08:30am 17.3 16.5 15.1 87 1.3 N 13 19 7 10 - - 0.0
28/08:00am 15.4 14.6 15.1 98 0.2 NNE 13 19 7 10 - - 0.0
28/07:30am 14.2 13.4 13.9 98 0.2 NNE 11 17 6 9 - - 0.0
28/07:00am 12.7 11.7 12.4 98 0.2 NE 9 13 5 7 - - 0.0
28/06:30am 12.6 11.6 12.3 98 0.2 NE 9 15 5 8 - - 0.0
28/06:00am 12.2 11.1 11.9 98 0.2 NE 9 13 5 7 - - 0.0
28/05:30am 12.2 11.1 11.9 98 0.2 NE 9 11 5 6 - - 0.0
28/05:00am 12.9 12.4 12.6 98 0.2 NNE 7 11 4 6 - - 0.0
28/04:30am 13.6 12.6 13.3 98 0.2 NNE 11 17 6 9 - - 0.0
28/04:00am 12.6 12.0 12.3 98 0.2 NE 7 13 4 7 - - 0.0
28/03:30am 13.0 12.5 12.7 98 0.2 NNE 7 11 4 6 - - 0.0
28/03:00am 13.8 12.8 13.5 98 0.2 NNE 11 15 6 8 - - 0.0
28/02:30am 13.5 12.8 13.2 98 0.2 N 9 13 5 7 - - 0.0
28/02:00am 13.8 13.2 13.5 98 0.2 NNE 9 13 5 7 - - 0.0
28/01:30am 14.0 13.8 13.7 98 0.2 NNE 7 13 4 7 - - 0.0
28/01:00am 14.8 14.9 14.5 98 0.2 NNE 7 13 4 7 - - 0.0
28/12:30am 15.4 15.4 15.1 98 0.2 NNE 9 15 5 8 - - 0.0
28/12:00am 15.5 15.5 15.2 98 0.2 N 9 13 5 7 - - 0.0
 
Date/Time
WST
Temp
°C
App
Temp
°C
Dew
Point
Rel
Hum
%
Delta-T
°C
Wind Press
QNH
hPa
Press
MSL
hPa
Rain
since 9 am
mm
Dir
 
Spd
km/h
Gust
km/h
Spd
kts
Gust
kts
27/11:30pm 15.3 15.0 14.5 95 0.5 NNE 9 11 5 6 - - 0.0
27/11:00pm 15.4 15.4 14.1 92 0.7 N 7 9 4 5 - - 0.0
27/10:30pm 15.2 14.9 13.4 89 1.0 NE 7 9 4 5 - - 0.0
27/10:00pm 16.8 16.0 15.2 90 0.9 NNW 13 17 7 9 - - 0.0

Other Formats:

Comma delimited format used in spreadsheet applications
http://www.bom.gov.au/fwo/IDW60801/IDW60801.94614.axf

JavaScript Object Notation format (JSON) in row-major order
http://www.bom.gov.au/fwo/IDW60801/IDW60801.94614.json